createdAt,value
2024-05-09T00:02:25.636Z,4.70
2024-05-09T00:07:46.894Z,4.85
2024-05-09T00:13:08.549Z,5.88
2024-05-09T00:18:30.553Z,4.65
2024-05-09T00:23:53.027Z,4.68
2024-05-09T00:34:36.525Z,5.13
2024-05-09T00:39:57.885Z,3.65
2024-05-09T00:45:19.124Z,4.47
2024-05-09T00:50:41.662Z,4.07
2024-05-09T00:56:05.141Z,4.28
2024-05-09T01:01:27.733Z,5.20
2024-05-09T01:06:49.222Z,4.88
2024-05-09T01:12:10.707Z,3.30
2024-05-09T01:17:32.953Z,5.60
2024-05-09T01:22:54.812Z,4.40
2024-05-09T01:28:16.432Z,4.20
2024-05-09T01:33:38.660Z,3.83
2024-05-09T01:39:00.038Z,4.47
2024-05-09T01:44:21.378Z,4.35
2024-05-09T01:49:43.404Z,4.68
2024-05-09T01:55:07.151Z,5.47
2024-05-09T02:00:37.378Z,5.55
2024-05-09T02:06:02.416Z,6.50
2024-05-09T02:11:23.464Z,5.03
2024-05-09T02:16:44.779Z,4.68
2024-05-09T02:22:05.987Z,4.45
2024-05-09T02:27:27.215Z,5.35
2024-05-09T02:32:49.166Z,4.63
2024-05-09T02:38:10.813Z,4.97
2024-05-09T02:43:32.646Z,4.97
2024-05-09T02:48:53.825Z,5.50
2024-05-09T02:54:14.862Z,10.17
2024-05-09T02:59:36.197Z,11.90
2024-05-09T03:10:25.403Z,8.13
2024-05-09T03:15:50.180Z,8.05
2024-05-09T03:21:11.575Z,9.52
2024-05-09T03:26:33.413Z,5.90
2024-05-09T03:37:16.095Z,8.57
2024-05-09T03:42:41.634Z,7.20
2024-05-09T03:48:03.177Z,8.82
2024-05-09T03:53:25.574Z,7.40
2024-05-09T03:58:46.824Z,6.05
2024-05-09T04:04:09.517Z,6.28
2024-05-09T04:09:31.006Z,7.38
2024-05-09T04:14:52.373Z,7.07
2024-05-09T04:20:24.168Z,5.63
2024-05-09T04:25:54.684Z,5.77
2024-05-09T04:31:15.823Z,5.50
2024-05-09T04:36:36.976Z,3.83
2024-05-09T04:41:58.238Z,5.00
2024-05-09T04:47:21.015Z,5.50
2024-05-09T04:52:42.010Z,4.80
2024-05-09T04:58:03.998Z,4.95
2024-05-09T05:03:25.212Z,3.75
2024-05-09T05:08:47.244Z,4.93
2024-05-09T05:19:30.630Z,5.82
2024-05-09T05:24:52.351Z,5.93
2024-05-09T05:30:21.101Z,6.57
2024-05-09T05:35:47.326Z,4.13
2024-05-09T05:41:08.817Z,3.88
2024-05-09T05:46:31.406Z,6.28
2024-05-09T05:51:52.757Z,7.38
2024-05-09T06:02:36.919Z,6.50
2024-05-09T06:07:58.999Z,6.65
2024-05-09T06:18:42.004Z,6.90
2024-05-09T06:24:06.157Z,5.10
2024-05-09T06:29:27.947Z,7.25
2024-05-09T06:34:49.199Z,4.15
2024-05-09T06:45:33.668Z,4.18
2024-05-09T06:50:55.301Z,6.93
2024-05-09T06:56:16.865Z,6.65
2024-05-09T07:01:38.395Z,5.90
2024-05-09T07:06:59.543Z,5.90
2024-05-09T07:23:05.239Z,10.27
2024-05-09T07:28:26.802Z,6.60
2024-05-09T07:33:48.096Z,6.22
2024-05-09T07:44:31.271Z,5.95
2024-05-09T07:51:32.809Z,5.90
2024-05-09T08:00:56.383Z,5.88
2024-05-09T08:06:17.650Z,5.15
2024-05-09T08:11:40.148Z,5.50
2024-05-09T08:17:02.464Z,5.40
2024-05-09T08:22:23.694Z,5.40
2024-05-09T08:27:45.414Z,4.28
2024-05-09T08:33:07.735Z,4.97
2024-05-09T08:38:29.704Z,4.45
2024-05-09T08:43:51.462Z,4.13
2024-05-09T08:49:13.679Z,4.40
2024-05-09T08:54:35.686Z,4.32
2024-05-09T09:00:00.445Z,4.10
2024-05-09T09:05:23.575Z,4.72
2024-05-09T09:10:46.541Z,4.50
2024-05-09T09:16:08.242Z,4.43
2024-05-09T09:21:30.314Z,4.05
2024-05-09T09:26:52.156Z,4.07
2024-05-09T09:32:13.667Z,4.30
2024-05-09T09:42:57.760Z,3.67
2024-05-09T09:48:20.218Z,5.90
2024-05-09T09:53:42.702Z,6.03
2024-05-09T09:59:07.208Z,5.18
2024-05-09T10:04:28.360Z,3.05
2024-05-09T10:09:50.102Z,3.67
2024-05-09T10:15:11.579Z,3.38
2024-05-09T10:20:45.945Z,3.42
2024-05-09T10:26:38.716Z,3.20
2024-05-09T10:32:00.223Z,3.17
2024-05-09T10:37:22.230Z,3.05
2024-05-09T10:42:43.683Z,3.10
2024-05-09T10:48:06.073Z,2.38
2024-05-09T10:53:27.681Z,2.70
2024-05-09T10:58:52.057Z,3.28
2024-05-09T11:04:14.464Z,3.85
2024-05-09T11:09:36.529Z,3.25
2024-05-09T11:14:58.252Z,4.53
2024-05-09T11:20:26.726Z,4.07
2024-05-09T11:25:52.776Z,4.25
2024-05-09T11:31:14.509Z,4.45
2024-05-09T11:36:36.265Z,3.85
2024-05-09T11:41:57.825Z,3.30
2024-05-09T11:47:21.655Z,4.70
2024-05-09T11:52:43.021Z,4.00
2024-05-09T12:03:25.858Z,3.83
2024-05-09T12:08:47.385Z,4.40
2024-05-09T12:14:08.974Z,4.15
2024-05-09T12:19:30.484Z,2.90
2024-05-09T12:24:52.240Z,3.80
2024-05-09T12:35:51.104Z,4.18
2024-05-09T12:41:12.648Z,4.03
2024-05-09T12:46:34.007Z,4.18
2024-05-09T12:51:55.259Z,4.38
2024-05-09T12:57:16.733Z,4.85
2024-05-09T13:02:38.261Z,4.90
2024-05-09T13:08:00.697Z,4.97
2024-05-09T13:13:21.998Z,5.20
2024-05-09T13:24:06.775Z,7.00
2024-05-09T13:29:28.258Z,5.85
2024-05-09T13:40:14.230Z,4.60
2024-05-09T13:45:36.082Z,4.55
2024-05-09T13:50:57.872Z,5.38
2024-05-09T13:56:19.413Z,7.28
2024-05-09T14:01:41.441Z,4.40
2024-05-09T14:07:03.895Z,4.40
2024-05-09T14:12:24.984Z,5.57
2024-05-09T14:17:46.771Z,5.22
2024-05-09T14:23:08.380Z,5.40
2024-05-09T14:28:29.827Z,8.85
2024-05-09T14:33:51.382Z,5.38
2024-05-09T14:39:12.877Z,4.20
2024-05-09T14:44:34.044Z,4.18
2024-05-09T14:49:55.932Z,3.42
2024-05-09T15:00:45.744Z,3.72
2024-05-09T15:06:11.354Z,3.85
2024-05-09T15:11:32.829Z,4.38
2024-05-09T15:22:16.627Z,3.60
2024-05-09T15:27:37.899Z,3.42
2024-05-09T15:33:00.118Z,4.10
2024-05-09T15:38:21.751Z,3.90
2024-05-09T15:43:42.908Z,3.88
2024-05-09T15:49:04.458Z,3.65
2024-05-09T15:54:26.810Z,3.65
2024-05-09T15:59:48.280Z,2.90
2024-05-09T16:05:10.006Z,4.05
2024-05-09T16:15:56.124Z,3.70
2024-05-09T16:21:17.434Z,4.22
2024-05-09T16:26:39.002Z,3.92
2024-05-09T16:32:00.492Z,4.05
2024-05-09T16:37:24.244Z,4.43
2024-05-09T16:42:46.669Z,3.80
2024-05-09T16:48:09.004Z,3.42
2024-05-09T16:53:30.305Z,3.20
2024-05-09T17:04:12.944Z,3.55
2024-05-09T17:09:34.562Z,3.22
2024-05-09T17:14:56.672Z,2.95
2024-05-09T17:25:54.716Z,3.00
2024-05-09T17:31:15.878Z,3.53
2024-05-09T17:47:20.458Z,2.50
2024-05-09T17:52:42.028Z,2.65
2024-05-09T17:58:04.752Z,2.55
2024-05-09T18:03:27.034Z,2.85
2024-05-09T18:08:48.427Z,2.90
2024-05-09T18:19:31.198Z,2.00
2024-05-09T18:24:53.414Z,3.03
2024-05-09T18:30:24.124Z,3.10
2024-05-09T18:35:52.847Z,3.00
2024-05-09T18:46:36.775Z,3.25
2024-05-09T18:51:58.310Z,3.10
2024-05-09T18:57:19.533Z,3.55
2024-05-09T19:02:41.035Z,4.22
2024-05-09T19:08:02.898Z,3.30
2024-05-09T19:13:27.452Z,4.07
2024-05-09T19:18:51.450Z,4.30
2024-05-09T19:24:13.380Z,5.20
2024-05-09T19:29:35.035Z,5.43
2024-05-09T19:34:56.281Z,7.68
2024-05-09T19:40:24.790Z,12.20
2024-05-09T19:45:52.172Z,15.50
2024-05-09T19:51:14.036Z,37.75
2024-05-09T19:56:35.357Z,22.98
2024-05-09T20:01:58.390Z,31.00
2024-05-09T20:07:20.022Z,25.00
2024-05-09T20:12:41.570Z,22.00
2024-05-09T20:23:25.563Z,18.08
2024-05-09T20:28:46.914Z,16.63
2024-05-09T20:34:08.277Z,16.33
2024-05-09T20:39:29.463Z,15.25
2024-05-09T20:44:51.267Z,14.10
2024-05-09T20:55:50.131Z,15.00
2024-05-09T21:01:11.421Z,15.30
2024-05-09T21:11:53.977Z,18.73
2024-05-09T21:17:15.266Z,18.63
2024-05-09T21:27:59.706Z,15.88
2024-05-09T21:33:21.305Z,15.18
2024-05-09T21:38:43.507Z,15.30
2024-05-09T21:44:04.868Z,15.52
2024-05-09T21:49:26.749Z,14.65
2024-05-09T22:00:20.325Z,14.60
2024-05-09T22:05:46.377Z,15.10
2024-05-09T22:11:07.933Z,8.65
2024-05-09T22:21:50.987Z,13.97
2024-05-09T22:27:12.326Z,15.68
2024-05-09T22:32:33.708Z,15.48
2024-05-09T22:37:55.516Z,16.08
2024-05-09T22:43:19.370Z,15.90
2024-05-09T22:48:40.938Z,14.15
2024-05-09T22:54:04.270Z,13.90
2024-05-09T22:59:25.651Z,9.02
2024-05-09T23:04:47.343Z,11.85
2024-05-09T23:10:13.429Z,7.57
2024-05-09T23:15:39.261Z,11.93
2024-05-09T23:21:01.374Z,11.82
2024-05-09T23:26:22.954Z,12.13
2024-05-09T23:31:44.243Z,11.55
2024-05-09T23:37:05.522Z,11.73
2024-05-09T23:42:26.798Z,12.20
2024-05-09T23:47:48.064Z,10.98
2024-05-09T23:58:32.092Z,11.63
